sensor_id;sensor_type;location;lat;lon;timestamp;temperature;humidity
6988;DHT22;3534;49.960;8.018;2023-06-22T00:01:12;26.10;99.90
6988;DHT22;3534;49.960;8.018;2023-06-22T00:03:39;25.90;99.90
6988;DHT22;3534;49.960;8.018;2023-06-22T00:06:06;25.90;99.90
6988;DHT22;3534;49.960;8.018;2023-06-22T00:08:32;25.90;99.90
6988;DHT22;3534;49.960;8.018;2023-06-22T00:10:59;25.90;99.90
6988;DHT22;3534;49.960;8.018;2023-06-22T00:13:27;25.90;99.90
6988;DHT22;3534;49.960;8.018;2023-06-22T00:15:54;25.90;99.90
6988;DHT22;3534;49.960;8.018;2023-06-22T00:18:20;25.90;99.90
6988;DHT22;3534;49.960;8.018;2023-06-22T00:20:47;25.90;99.90
6988;DHT22;3534;49.960;8.018;2023-06-22T00:23:14;25.90;99.90
6988;DHT22;3534;49.960;8.018;2023-06-22T00:25:41;25.90;99.90
6988;DHT22;3534;49.960;8.018;2023-06-22T00:28:08;25.90;99.90
6988;DHT22;3534;49.960;8.018;2023-06-22T00:30:36;26.00;99.90
6988;DHT22;3534;49.960;8.018;2023-06-22T00:33:02;26.00;99.90
6988;DHT22;3534;49.960;8.018;2023-06-22T00:35:32;26.00;99.90
6988;DHT22;3534;49.960;8.018;2023-06-22T00:38:00;26.00;99.90
6988;DHT22;3534;49.960;8.018;2023-06-22T00:40:29;25.90;99.90
6988;DHT22;3534;49.960;8.018;2023-06-22T00:42:56;25.80;99.90
6988;DHT22;3534;49.960;8.018;2023-06-22T00:45:23;25.80;99.90
6988;DHT22;3534;49.960;8.018;2023-06-22T00:47:52;25.70;99.90
6988;DHT22;3534;49.960;8.018;2023-06-22T00:50:21;25.70;99.90
6988;DHT22;3534;49.960;8.018;2023-06-22T00:52:51;25.60;99.90
6988;DHT22;3534;49.960;8.018;2023-06-22T00:55:18;25.60;99.90
6988;DHT22;3534;49.960;8.018;2023-06-22T00:57:46;25.60;99.90
6988;DHT22;3534;49.960;8.018;2023-06-22T01:00:13;25.50;99.90
6988;DHT22;3534;49.960;8.018;2023-06-22T01:02:45;25.40;99.90
6988;DHT22;3534;49.960;8.018;2023-06-22T01:05:13;25.40;99.90
6988;DHT22;3534;49.960;8.018;2023-06-22T01:07:47;25.30;99.90
6988;DHT22;3534;49.960;8.018;2023-06-22T01:10:25;25.30;99.90
6988;DHT22;3534;49.960;8.018;2023-06-22T01:12:58;25.20;99.90
6988;DHT22;3534;49.960;8.018;2023-06-22T01:15:30;25.20;99.90
6988;DHT22;3534;49.960;8.018;2023-06-22T01:17:58;25.10;99.90
6988;DHT22;3534;49.960;8.018;2023-06-22T01:20:28;25.00;99.90
6988;DHT22;3534;49.960;8.018;2023-06-22T01:23:05;25.00;99.90
6988;DHT22;3534;49.960;8.018;2023-06-22T01:25:37;24.90;99.90
6988;DHT22;3534;49.960;8.018;2023-06-22T01:28:16;24.90;99.90
6988;DHT22;3534;49.960;8.018;2023-06-22T01:30:49;25.00;99.90
6988;DHT22;3534;49.960;8.018;2023-06-22T01:33:29;24.90;99.90
6988;DHT22;3534;49.960;8.018;2023-06-22T01:35:57;24.90;99.90
6988;DHT22;3534;49.960;8.018;2023-06-22T01:38:24;24.90;99.90
6988;DHT22;3534;49.960;8.018;2023-06-22T01:40:52;24.90;99.90
6988;DHT22;3534;49.960;8.018;2023-06-22T01:43:20;24.90;99.90
6988;DHT22;3534;49.960;8.018;2023-06-22T01:45:50;24.90;99.90
6988;DHT22;3534;49.960;8.018;2023-06-22T01:48:17;24.80;99.90
6988;DHT22;3534;49.960;8.018;2023-06-22T01:50:45;24.80;99.90
6988;DHT22;3534;49.960;8.018;2023-06-22T01:53:11;24.80;99.90
6988;DHT22;3534;49.960;8.018;2023-06-22T01:55:38;24.80;99.90
6988;DHT22;3534;49.960;8.018;2023-06-22T01:58:05;24.80;99.90
6988;DHT22;3534;49.960;8.018;2023-06-22T02:00:34;24.70;99.90
6988;DHT22;3534;49.960;8.018;2023-06-22T02:03:08;24.70;99.90
6988;DHT22;3534;49.960;8.018;2023-06-22T02:05:38;24.70;99.90
6988;DHT22;3534;49.960;8.018;2023-06-22T02:08:10;24.60;99.90
6988;DHT22;3534;49.960;8.018;2023-06-22T02:10:38;24.60;99.90
6988;DHT22;3534;49.960;8.018;2023-06-22T02:13:09;24.60;99.90
6988;DHT22;3534;49.960;8.018;2023-06-22T02:15:37;24.60;99.90
6988;DHT22;3534;49.960;8.018;2023-06-22T02:18:05;24.60;99.90
6988;DHT22;3534;49.960;8.018;2023-06-22T02:20:32;24.60;99.90
6988;DHT22;3534;49.960;8.018;2023-06-22T02:22:59;24.40;99.90
6988;DHT22;3534;49.960;8.018;2023-06-22T02:25:25;24.30;99.90
6988;DHT22;3534;49.960;8.018;2023-06-22T02:27:52;24.20;99.90
6988;DHT22;3534;49.960;8.018;2023-06-22T02:30:19;24.10;99.90
6988;DHT22;3534;49.960;8.018;2023-06-22T02:32:45;24.00;99.90
6988;DHT22;3534;49.960;8.018;2023-06-22T02:35:14;24.10;99.90
6988;DHT22;3534;49.960;8.018;2023-06-22T02:37:40;24.10;99.90
6988;DHT22;3534;49.960;8.018;2023-06-22T02:40:08;24.20;99.90
6988;DHT22;3534;49.960;8.018;2023-06-22T02:42:35;24.20;99.90
6988;DHT22;3534;49.960;8.018;2023-06-22T02:45:02;24.20;99.90
6988;DHT22;3534;49.960;8.018;2023-06-22T02:47:29;24.20;99.90
6988;DHT22;3534;49.960;8.018;2023-06-22T02:49:56;24.20;99.90
6988;DHT22;3534;49.960;8.018;2023-06-22T02:52:24;24.20;99.90
6988;DHT22;3534;49.960;8.018;2023-06-22T02:54:51;24.20;99.90
6988;DHT22;3534;49.960;8.018;2023-06-22T02:57:17;24.20;99.90
6988;DHT22;3534;49.960;8.018;2023-06-22T02:59:44;24.20;99.90
6988;DHT22;3534;49.960;8.018;2023-06-22T03:02:11;24.20;99.90
6988;DHT22;3534;49.960;8.018;2023-06-22T03:04:38;24.20;99.90
6988;DHT22;3534;49.960;8.018;2023-06-22T03:07:05;24.20;99.90
6988;DHT22;3534;49.960;8.018;2023-06-22T03:09:33;24.20;99.90
6988;DHT22;3534;49.960;8.018;2023-06-22T03:11:59;24.20;99.90
6988;DHT22;3534;49.960;8.018;2023-06-22T03:14:27;24.20;99.90
6988;DHT22;3534;49.960;8.018;2023-06-22T03:16:54;24.20;99.90
6988;DHT22;3534;49.960;8.018;2023-06-22T03:19:27;24.20;99.90
6988;DHT22;3534;49.960;8.018;2023-06-22T03:21:55;24.20;99.90
6988;DHT22;3534;49.960;8.018;2023-06-22T03:24:21;24.20;99.90
6988;DHT22;3534;49.960;8.018;2023-06-22T03:26:49;24.20;99.90
6988;DHT22;3534;49.960;8.018;2023-06-22T03:29:16;24.20;99.90
6988;DHT22;3534;49.960;8.018;2023-06-22T03:31:42;24.20;99.90
6988;DHT22;3534;49.960;8.018;2023-06-22T03:34:09;24.10;99.90
6988;DHT22;3534;49.960;8.018;2023-06-22T03:36:36;23.90;99.90
6988;DHT22;3534;49.960;8.018;2023-06-22T03:39:02;23.70;99.90
6988;DHT22;3534;49.960;8.018;2023-06-22T03:41:29;23.60;99.90
6988;DHT22;3534;49.960;8.018;2023-06-22T03:43:57;23.60;99.90
6988;DHT22;3534;49.960;8.018;2023-06-22T03:46:24;23.60;99.90
6988;DHT22;3534;49.960;8.018;2023-06-22T03:48:51;23.70;99.90
6988;DHT22;3534;49.960;8.018;2023-06-22T03:51:17;23.70;99.90
6988;DHT22;3534;49.960;8.018;2023-06-22T03:53:44;23.70;99.90
6988;DHT22;3534;49.960;8.018;2023-06-22T03:56:11;23.80;99.90
6988;DHT22;3534;49.960;8.018;2023-06-22T03:58:37;23.80;99.90
6988;DHT22;3534;49.960;8.018;2023-06-22T04:01:09;23.80;99.90
6988;DHT22;3534;49.960;8.018;2023-06-22T04:03:37;23.80;99.90
6988;DHT22;3534;49.960;8.018;2023-06-22T04:06:04;23.80;99.90
6988;DHT22;3534;49.960;8.018;2023-06-22T04:08:30;23.90;99.90
6988;DHT22;3534;49.960;8.018;2023-06-22T04:10:57;23.90;99.90
6988;DHT22;3534;49.960;8.018;2023-06-22T04:13:24;23.90;99.90
6988;DHT22;3534;49.960;8.018;2023-06-22T04:15:51;23.90;99.90
6988;DHT22;3534;49.960;8.018;2023-06-22T04:18:19;23.90;99.90
6988;DHT22;3534;49.960;8.018;2023-06-22T04:20:45;23.90;99.90
6988;DHT22;3534;49.960;8.018;2023-06-22T04:23:12;23.90;99.90
6988;DHT22;3534;49.960;8.018;2023-06-22T04:25:39;23.90;99.90
6988;DHT22;3534;49.960;8.018;2023-06-22T04:28:06;23.90;99.90
6988;DHT22;3534;49.960;8.018;2023-06-22T04:30:38;23.90;99.90
6988;DHT22;3534;49.960;8.018;2023-06-22T04:33:12;23.90;99.90
6988;DHT22;3534;49.960;8.018;2023-06-22T04:35:40;23.90;99.90
6988;DHT22;3534;49.960;8.018;2023-06-22T04:38:07;23.80;99.90
6988;DHT22;3534;49.960;8.018;2023-06-22T04:40:34;23.80;99.90
6988;DHT22;3534;49.960;8.018;2023-06-22T04:43:01;23.80;99.90
6988;DHT22;3534;49.960;8.018;2023-06-22T04:45:29;23.70;99.90
6988;DHT22;3534;49.960;8.018;2023-06-22T04:47:56;23.70;99.90
6988;DHT22;3534;49.960;8.018;2023-06-22T04:50:23;23.70;99.90
6988;DHT22;3534;49.960;8.018;2023-06-22T04:52:51;23.70;99.90
6988;DHT22;3534;49.960;8.018;2023-06-22T04:55:20;23.70;99.90
6988;DHT22;3534;49.960;8.018;2023-06-22T04:57:48;23.70;99.90
6988;DHT22;3534;49.960;8.018;2023-06-22T05:00:15;23.70;99.90
6988;DHT22;3534;49.960;8.018;2023-06-22T05:02:44;23.70;99.90
6988;DHT22;3534;49.960;8.018;2023-06-22T05:05:11;23.70;99.90
6988;DHT22;3534;49.960;8.018;2023-06-22T05:07:40;23.70;99.90
6988;DHT22;3534;49.960;8.018;2023-06-22T05:10:10;23.80;99.90
6988;DHT22;3534;49.960;8.018;2023-06-22T05:12:38;23.70;99.90
6988;DHT22;3534;49.960;8.018;2023-06-22T05:15:07;23.80;99.90
6988;DHT22;3534;49.960;8.018;2023-06-22T05:17:34;23.80;99.90
6988;DHT22;3534;49.960;8.018;2023-06-22T05:20:01;23.80;99.90
6988;DHT22;3534;49.960;8.018;2023-06-22T05:22:28;23.80;99.90
6988;DHT22;3534;49.960;8.018;2023-06-22T05:24:54;23.80;99.90
6988;DHT22;3534;49.960;8.018;2023-06-22T05:27:22;23.80;99.90
6988;DHT22;3534;49.960;8.018;2023-06-22T05:29:49;23.90;99.90
6988;DHT22;3534;49.960;8.018;2023-06-22T05:32:16;23.90;99.90
6988;DHT22;3534;49.960;8.018;2023-06-22T05:34:42;23.90;99.90
6988;DHT22;3534;49.960;8.018;2023-06-22T05:37:09;23.90;99.90
6988;DHT22;3534;49.960;8.018;2023-06-22T05:39:36;24.00;99.90
6988;DHT22;3534;49.960;8.018;2023-06-22T05:42:04;24.00;99.90
6988;DHT22;3534;49.960;8.018;2023-06-22T05:44:33;24.00;99.90
6988;DHT22;3534;49.960;8.018;2023-06-22T05:47:00;24.00;99.90
6988;DHT22;3534;49.960;8.018;2023-06-22T05:49:26;24.00;99.90
6988;DHT22;3534;49.960;8.018;2023-06-22T05:51:55;24.00;99.90
6988;DHT22;3534;49.960;8.018;2023-06-22T05:54:22;24.00;99.90
6988;DHT22;3534;49.960;8.018;2023-06-22T05:56:49;24.10;99.90
6988;DHT22;3534;49.960;8.018;2023-06-22T05:59:15;24.10;99.90
6988;DHT22;3534;49.960;8.018;2023-06-22T06:01:43;24.10;99.90
6988;DHT22;3534;49.960;8.018;2023-06-22T06:04:10;24.10;99.90
6988;DHT22;3534;49.960;8.018;2023-06-22T06:06:37;24.20;99.90
6988;DHT22;3534;49.960;8.018;2023-06-22T06:09:03;24.20;99.90
6988;DHT22;3534;49.960;8.018;2023-06-22T06:11:30;24.20;99.90
6988;DHT22;3534;49.960;8.018;2023-06-22T06:13:57;24.30;99.90
6988;DHT22;3534;49.960;8.018;2023-06-22T06:16:24;24.30;99.90
6988;DHT22;3534;49.960;8.018;2023-06-22T06:18:52;24.30;99.90
6988;DHT22;3534;49.960;8.018;2023-06-22T06:21:21;24.30;99.90
6988;DHT22;3534;49.960;8.018;2023-06-22T06:23:48;24.30;99.90
6988;DHT22;3534;49.960;8.018;2023-06-22T06:26:14;24.40;99.90
6988;DHT22;3534;49.960;8.018;2023-06-22T06:28:42;24.40;99.90
6988;DHT22;3534;49.960;8.018;2023-06-22T06:31:09;24.40;99.90
6988;DHT22;3534;49.960;8.018;2023-06-22T06:33:37;24.50;99.90
6988;DHT22;3534;49.960;8.018;2023-06-22T06:36:05;24.50;99.90
6988;DHT22;3534;49.960;8.018;2023-06-22T06:38:33;24.60;99.90
6988;DHT22;3534;49.960;8.018;2023-06-22T06:41:00;24.60;99.90
6988;DHT22;3534;49.960;8.018;2023-06-22T06:43:27;24.60;99.90
6988;DHT22;3534;49.960;8.018;2023-06-22T06:45:54;24.60;99.90
6988;DHT22;3534;49.960;8.018;2023-06-22T06:48:20;24.70;99.90
6988;DHT22;3534;49.960;8.018;2023-06-22T06:50:47;24.70;99.90
6988;DHT22;3534;49.960;8.018;2023-06-22T06:53:15;24.70;99.90
6988;DHT22;3534;49.960;8.018;2023-06-22T06:55:42;24.70;99.90
6988;DHT22;3534;49.960;8.018;2023-06-22T06:58:10;24.80;99.90
6988;DHT22;3534;49.960;8.018;2023-06-22T07:00:38;24.90;99.90
6988;DHT22;3534;49.960;8.018;2023-06-22T07:03:05;24.90;99.90
6988;DHT22;3534;49.960;8.018;2023-06-22T07:05:32;24.90;99.90
6988;DHT22;3534;49.960;8.018;2023-06-22T07:07:59;25.00;99.90
6988;DHT22;3534;49.960;8.018;2023-06-22T07:10:28;25.00;99.90
6988;DHT22;3534;49.960;8.018;2023-06-22T07:12:55;25.10;99.90
6988;DHT22;3534;49.960;8.018;2023-06-22T07:15:22;25.10;99.90
6988;DHT22;3534;49.960;8.018;2023-06-22T07:17:49;25.20;99.90
6988;DHT22;3534;49.960;8.018;2023-06-22T07:20:16;25.20;99.90
6988;DHT22;3534;49.960;8.018;2023-06-22T07:22:44;25.30;99.90
6988;DHT22;3534;49.960;8.018;2023-06-22T07:25:11;25.40;99.90
6988;DHT22;3534;49.960;8.018;2023-06-22T07:27:44;25.40;99.90
6988;DHT22;3534;49.960;8.018;2023-06-22T07:30:12;25.40;99.90
6988;DHT22;3534;49.960;8.018;2023-06-22T07:32:39;25.50;99.90
6988;DHT22;3534;49.960;8.018;2023-06-22T07:35:07;25.60;99.90
6988;DHT22;3534;49.960;8.018;2023-06-22T07:37:34;25.60;99.90
6988;DHT22;3534;49.960;8.018;2023-06-22T07:40:00;25.70;99.90
6988;DHT22;3534;49.960;8.018;2023-06-22T07:42:31;25.70;99.90
6988;DHT22;3534;49.960;8.018;2023-06-22T07:45:01;25.80;99.90
6988;DHT22;3534;49.960;8.018;2023-06-22T07:47:28;25.80;99.90
6988;DHT22;3534;49.960;8.018;2023-06-22T07:49:55;25.90;99.90
6988;DHT22;3534;49.960;8.018;2023-06-22T07:52:23;25.90;99.90
6988;DHT22;3534;49.960;8.018;2023-06-22T07:54:50;26.00;99.90
6988;DHT22;3534;49.960;8.018;2023-06-22T07:57:17;26.00;99.90
6988;DHT22;3534;49.960;8.018;2023-06-22T07:59:44;26.10;99.90
6988;DHT22;3534;49.960;8.018;2023-06-22T08:02:12;26.20;99.90
6988;DHT22;3534;49.960;8.018;2023-06-22T08:04:39;26.20;99.90
6988;DHT22;3534;49.960;8.018;2023-06-22T08:07:06;26.30;99.90
6988;DHT22;3534;49.960;8.018;2023-06-22T08:09:33;26.40;99.90
6988;DHT22;3534;49.960;8.018;2023-06-22T08:12:00;26.40;99.90
6988;DHT22;3534;49.960;8.018;2023-06-22T08:14:27;26.50;99.90
6988;DHT22;3534;49.960;8.018;2023-06-22T08:16:54;26.50;99.90
6988;DHT22;3534;49.960;8.018;2023-06-22T08:19:22;26.50;99.90
6988;DHT22;3534;49.960;8.018;2023-06-22T08:21:48;26.60;99.90
6988;DHT22;3534;49.960;8.018;2023-06-22T08:24:15;26.70;99.90
6988;DHT22;3534;49.960;8.018;2023-06-22T08:26:42;26.70;99.90
6988;DHT22;3534;49.960;8.018;2023-06-22T08:29:08;26.80;99.90
6988;DHT22;3534;49.960;8.018;2023-06-22T08:31:36;26.80;99.90
6988;DHT22;3534;49.960;8.018;2023-06-22T08:34:02;26.90;99.90
6988;DHT22;3534;49.960;8.018;2023-06-22T08:36:30;27.00;99.90
6988;DHT22;3534;49.960;8.018;2023-06-22T08:38:58;27.00;99.90
6988;DHT22;3534;49.960;8.018;2023-06-22T08:41:26;27.10;99.90
6988;DHT22;3534;49.960;8.018;2023-06-22T08:43:53;27.10;99.90
6988;DHT22;3534;49.960;8.018;2023-06-22T08:46:20;27.20;99.90
6988;DHT22;3534;49.960;8.018;2023-06-22T08:48:48;27.20;99.90
6988;DHT22;3534;49.960;8.018;2023-06-22T08:51:15;27.30;99.90
6988;DHT22;3534;49.960;8.018;2023-06-22T08:53:44;27.40;99.90
6988;DHT22;3534;49.960;8.018;2023-06-22T08:56:11;27.50;99.90
6988;DHT22;3534;49.960;8.018;2023-06-22T08:58:38;27.50;99.90
6988;DHT22;3534;49.960;8.018;2023-06-22T09:01:04;27.60;99.90
6988;DHT22;3534;49.960;8.018;2023-06-22T09:03:31;27.70;99.90
6988;DHT22;3534;49.960;8.018;2023-06-22T09:05:58;27.80;99.90
6988;DHT22;3534;49.960;8.018;2023-06-22T09:08:25;27.80;99.90
6988;DHT22;3534;49.960;8.018;2023-06-22T09:10:53;27.90;99.90
6988;DHT22;3534;49.960;8.018;2023-06-22T09:13:19;27.90;99.90
6988;DHT22;3534;49.960;8.018;2023-06-22T09:15:47;28.00;99.90
6988;DHT22;3534;49.960;8.018;2023-06-22T09:18:14;28.00;99.90
6988;DHT22;3534;49.960;8.018;2023-06-22T09:20:41;28.10;99.90
6988;DHT22;3534;49.960;8.018;2023-06-22T09:23:07;28.10;99.90
6988;DHT22;3534;49.960;8.018;2023-06-22T09:25:34;28.20;99.90
6988;DHT22;3534;49.960;8.018;2023-06-22T09:28:02;28.30;99.90
6988;DHT22;3534;49.960;8.018;2023-06-22T09:30:29;28.40;99.90
6988;DHT22;3534;49.960;8.018;2023-06-22T09:32:56;28.40;99.90
6988;DHT22;3534;49.960;8.018;2023-06-22T09:35:22;28.50;99.90
6988;DHT22;3534;49.960;8.018;2023-06-22T09:37:49;28.60;99.90
6988;DHT22;3534;49.960;8.018;2023-06-22T09:40:16;28.60;99.90
6988;DHT22;3534;49.960;8.018;2023-06-22T09:42:42;28.70;99.90
6988;DHT22;3534;49.960;8.018;2023-06-22T09:45:11;28.70;99.90
6988;DHT22;3534;49.960;8.018;2023-06-22T09:47:37;28.70;99.90
6988;DHT22;3534;49.960;8.018;2023-06-22T09:50:06;28.80;99.90
6988;DHT22;3534;49.960;8.018;2023-06-22T09:52:34;28.90;99.90
6988;DHT22;3534;49.960;8.018;2023-06-22T09:55:00;28.90;99.90
6988;DHT22;3534;49.960;8.018;2023-06-22T09:57:29;28.90;99.90
6988;DHT22;3534;49.960;8.018;2023-06-22T09:59:56;29.00;99.90
6988;DHT22;3534;49.960;8.018;2023-06-22T10:02:24;29.00;99.90
6988;DHT22;3534;49.960;8.018;2023-06-22T10:04:50;29.10;99.90
6988;DHT22;3534;49.960;8.018;2023-06-22T10:07:17;29.10;99.90
6988;DHT22;3534;49.960;8.018;2023-06-22T10:09:44;29.20;99.90
6988;DHT22;3534;49.960;8.018;2023-06-22T10:12:10;29.20;99.90
6988;DHT22;3534;49.960;8.018;2023-06-22T10:14:37;29.20;99.90
6988;DHT22;3534;49.960;8.018;2023-06-22T10:17:04;29.20;99.90
6988;DHT22;3534;49.960;8.018;2023-06-22T10:19:34;29.30;99.90
6988;DHT22;3534;49.960;8.018;2023-06-22T10:22:03;29.40;99.90
6988;DHT22;3534;49.960;8.018;2023-06-22T10:24:30;29.40;99.90
6988;DHT22;3534;49.960;8.018;2023-06-22T10:26:57;29.40;99.90
6988;DHT22;3534;49.960;8.018;2023-06-22T10:29:24;29.50;99.90
6988;DHT22;3534;49.960;8.018;2023-06-22T10:31:50;29.50;99.90
6988;DHT22;3534;49.960;8.018;2023-06-22T10:34:17;29.70;99.90
6988;DHT22;3534;49.960;8.018;2023-06-22T10:36:45;29.70;99.90
6988;DHT22;3534;49.960;8.018;2023-06-22T10:39:14;29.70;99.90
6988;DHT22;3534;49.960;8.018;2023-06-22T10:41:40;29.90;99.90
6988;DHT22;3534;49.960;8.018;2023-06-22T10:44:07;29.90;99.90
6988;DHT22;3534;49.960;8.018;2023-06-22T10:46:34;29.90;99.90
6988;DHT22;3534;49.960;8.018;2023-06-22T10:49:00;30.00;99.90
6988;DHT22;3534;49.960;8.018;2023-06-22T10:51:27;30.00;99.90
6988;DHT22;3534;49.960;8.018;2023-06-22T10:53:55;30.00;99.90
6988;DHT22;3534;49.960;8.018;2023-06-22T10:56:22;30.10;99.90
6988;DHT22;3534;49.960;8.018;2023-06-22T10:58:49;30.10;99.90
6988;DHT22;3534;49.960;8.018;2023-06-22T11:01:17;30.10;99.90
6988;DHT22;3534;49.960;8.018;2023-06-22T11:03:43;30.10;99.90
6988;DHT22;3534;49.960;8.018;2023-06-22T11:06:11;30.10;99.90
6988;DHT22;3534;49.960;8.018;2023-06-22T11:08:37;30.10;99.90
6988;DHT22;3534;49.960;8.018;2023-06-22T11:11:05;30.20;99.90
6988;DHT22;3534;49.960;8.018;2023-06-22T11:13:32;30.20;99.90
6988;DHT22;3534;49.960;8.018;2023-06-22T11:15:59;30.30;99.90
6988;DHT22;3534;49.960;8.018;2023-06-22T11:18:25;30.40;99.90
6988;DHT22;3534;49.960;8.018;2023-06-22T11:20:52;30.50;99.90
6988;DHT22;3534;49.960;8.018;2023-06-22T11:23:19;30.50;99.90
6988;DHT22;3534;49.960;8.018;2023-06-22T11:25:45;30.50;99.90
6988;DHT22;3534;49.960;8.018;2023-06-22T11:28:13;30.50;99.90
6988;DHT22;3534;49.960;8.018;2023-06-22T11:30:40;30.60;99.90
6988;DHT22;3534;49.960;8.018;2023-06-22T11:33:07;30.70;99.90
6988;DHT22;3534;49.960;8.018;2023-06-22T11:35:34;30.70;99.90
6988;DHT22;3534;49.960;8.018;2023-06-22T11:38:00;30.70;99.90
6988;DHT22;3534;49.960;8.018;2023-06-22T11:40:28;30.90;99.90
6988;DHT22;3534;49.960;8.018;2023-06-22T11:42:55;31.00;99.90
6988;DHT22;3534;49.960;8.018;2023-06-22T11:45:23;31.10;99.90
6988;DHT22;3534;49.960;8.018;2023-06-22T11:47:50;31.10;99.90
6988;DHT22;3534;49.960;8.018;2023-06-22T11:50:17;31.20;99.90
6988;DHT22;3534;49.960;8.018;2023-06-22T11:52:44;31.20;99.90
6988;DHT22;3534;49.960;8.018;2023-06-22T11:55:10;31.30;99.90
6988;DHT22;3534;49.960;8.018;2023-06-22T11:57:38;31.40;99.90
6988;DHT22;3534;49.960;8.018;2023-06-22T12:00:06;31.40;99.90
6988;DHT22;3534;49.960;8.018;2023-06-22T12:02:41;31.50;99.90
6988;DHT22;3534;49.960;8.018;2023-06-22T12:05:08;31.50;99.90
6988;DHT22;3534;49.960;8.018;2023-06-22T12:07:35;31.60;99.90
6988;DHT22;3534;49.960;8.018;2023-06-22T12:10:03;31.70;99.90
6988;DHT22;3534;49.960;8.018;2023-06-22T12:12:30;31.80;99.90
6988;DHT22;3534;49.960;8.018;2023-06-22T12:14:56;31.80;99.90
6988;DHT22;3534;49.960;8.018;2023-06-22T12:17:23;31.80;99.90
6988;DHT22;3534;49.960;8.018;2023-06-22T12:19:51;31.80;99.90
6988;DHT22;3534;49.960;8.018;2023-06-22T12:22:18;31.90;99.90
6988;DHT22;3534;49.960;8.018;2023-06-22T12:24:44;32.00;99.90
6988;DHT22;3534;49.960;8.018;2023-06-22T12:27:11;32.10;99.90
6988;DHT22;3534;49.960;8.018;2023-06-22T12:29:38;32.10;99.90
6988;DHT22;3534;49.960;8.018;2023-06-22T12:32:05;32.20;99.90
6988;DHT22;3534;49.960;8.018;2023-06-22T12:34:32;32.30;99.90
6988;DHT22;3534;49.960;8.018;2023-06-22T12:37:00;32.30;99.90
6988;DHT22;3534;49.960;8.018;2023-06-22T12:39:27;32.40;99.90
6988;DHT22;3534;49.960;8.018;2023-06-22T12:41:54;32.40;99.90
6988;DHT22;3534;49.960;8.018;2023-06-22T12:44:20;32.50;99.90
6988;DHT22;3534;49.960;8.018;2023-06-22T12:46:47;32.60;99.90
6988;DHT22;3534;49.960;8.018;2023-06-22T12:49:14;32.60;99.90
6988;DHT22;3534;49.960;8.018;2023-06-22T12:51:41;32.70;99.90
6988;DHT22;3534;49.960;8.018;2023-06-22T12:54:10;32.80;99.90
6988;DHT22;3534;49.960;8.018;2023-06-22T12:56:37;32.90;99.90
6988;DHT22;3534;49.960;8.018;2023-06-22T12:59:04;33.10;99.90
6988;DHT22;3534;49.960;8.018;2023-06-22T13:01:31;33.30;99.90
6988;DHT22;3534;49.960;8.018;2023-06-22T13:03:58;33.50;99.90
6988;DHT22;3534;49.960;8.018;2023-06-22T13:06:25;33.60;99.90
6988;DHT22;3534;49.960;8.018;2023-06-22T13:08:52;33.70;99.90
6988;DHT22;3534;49.960;8.018;2023-06-22T13:11:20;33.80;99.90
6988;DHT22;3534;49.960;8.018;2023-06-22T13:13:47;33.90;99.90
6988;DHT22;3534;49.960;8.018;2023-06-22T13:16:13;34.00;99.90
6988;DHT22;3534;49.960;8.018;2023-06-22T13:18:40;34.10;99.90
6988;DHT22;3534;49.960;8.018;2023-06-22T13:21:07;34.30;99.90
6988;DHT22;3534;49.960;8.018;2023-06-22T13:23:33;34.50;99.90
6988;DHT22;3534;49.960;8.018;2023-06-22T13:26:00;34.70;99.90
6988;DHT22;3534;49.960;8.018;2023-06-22T13:28:29;34.80;99.90
6988;DHT22;3534;49.960;8.018;2023-06-22T13:30:56;35.00;99.90
6988;DHT22;3534;49.960;8.018;2023-06-22T13:33:23;35.10;99.90
6988;DHT22;3534;49.960;8.018;2023-06-22T13:35:50;35.10;99.90
6988;DHT22;3534;49.960;8.018;2023-06-22T13:38:16;35.00;99.90
6988;DHT22;3534;49.960;8.018;2023-06-22T13:40:43;35.00;99.90
6988;DHT22;3534;49.960;8.018;2023-06-22T13:43:10;35.20;99.90
6988;DHT22;3534;49.960;8.018;2023-06-22T13:45:38;35.20;99.90
6988;DHT22;3534;49.960;8.018;2023-06-22T13:48:05;35.30;99.90
6988;DHT22;3534;49.960;8.018;2023-06-22T13:50:32;35.20;99.90
6988;DHT22;3534;49.960;8.018;2023-06-22T13:52:58;35.20;99.90
6988;DHT22;3534;49.960;8.018;2023-06-22T13:55:25;35.10;99.90
6988;DHT22;3534;49.960;8.018;2023-06-22T13:57:52;34.80;99.90
6988;DHT22;3534;49.960;8.018;2023-06-22T14:00:19;34.60;99.90
6988;DHT22;3534;49.960;8.018;2023-06-22T14:02:47;34.40;99.90
6988;DHT22;3534;49.960;8.018;2023-06-22T14:05:13;34.30;99.90
6988;DHT22;3534;49.960;8.018;2023-06-22T14:07:40;34.10;99.90
6988;DHT22;3534;49.960;8.018;2023-06-22T14:10:07;34.00;99.90
6988;DHT22;3534;49.960;8.018;2023-06-22T14:12:34;33.80;99.90
6988;DHT22;3534;49.960;8.018;2023-06-22T14:15:01;33.80;99.90
6988;DHT22;3534;49.960;8.018;2023-06-22T14:17:28;33.60;99.90
6988;DHT22;3534;49.960;8.018;2023-06-22T14:19:56;33.50;99.90
6988;DHT22;3534;49.960;8.018;2023-06-22T14:22:22;33.40;99.90
6988;DHT22;3534;49.960;8.018;2023-06-22T14:24:49;33.30;99.90
6988;DHT22;3534;49.960;8.018;2023-06-22T14:27:16;33.20;99.90
6988;DHT22;3534;49.960;8.018;2023-06-22T14:29:43;33.10;99.90
6988;DHT22;3534;49.960;8.018;2023-06-22T14:32:10;33.00;99.90
6988;DHT22;3534;49.960;8.018;2023-06-22T14:34:37;32.90;99.90
6988;DHT22;3534;49.960;8.018;2023-06-22T14:37:06;32.80;99.90
6988;DHT22;3534;49.960;8.018;2023-06-22T14:39:35;32.80;99.90
6988;DHT22;3534;49.960;8.018;2023-06-22T14:42:01;32.70;99.90
6988;DHT22;3534;49.960;8.018;2023-06-22T14:44:29;32.60;99.90
6988;DHT22;3534;49.960;8.018;2023-06-22T14:46:55;32.50;99.90
6988;DHT22;3534;49.960;8.018;2023-06-22T14:49:22;32.50;99.90
6988;DHT22;3534;49.960;8.018;2023-06-22T14:51:49;32.40;99.90
6988;DHT22;3534;49.960;8.018;2023-06-22T14:54:17;32.40;99.90
6988;DHT22;3534;49.960;8.018;2023-06-22T14:56:44;32.40;99.90
6988;DHT22;3534;49.960;8.018;2023-06-22T14:59:10;32.40;99.90
6988;DHT22;3534;49.960;8.018;2023-06-22T15:01:37;32.40;99.90
6988;DHT22;3534;49.960;8.018;2023-06-22T15:04:04;32.40;99.90
6988;DHT22;3534;49.960;8.018;2023-06-22T15:06:31;32.40;99.90
6988;DHT22;3534;49.960;8.018;2023-06-22T15:08:58;32.40;99.90
6988;DHT22;3534;49.960;8.018;2023-06-22T15:11:26;32.40;99.90
6988;DHT22;3534;49.960;8.018;2023-06-22T15:13:52;32.40;99.90
6988;DHT22;3534;49.960;8.018;2023-06-22T15:16:19;32.40;99.90
6988;DHT22;3534;49.960;8.018;2023-06-22T15:18:46;32.30;99.90
6988;DHT22;3534;49.960;8.018;2023-06-22T15:21:13;32.30;99.90
6988;DHT22;3534;49.960;8.018;2023-06-22T15:23:40;32.20;99.90
6988;DHT22;3534;49.960;8.018;2023-06-22T15:26:07;32.10;99.90
6988;DHT22;3534;49.960;8.018;2023-06-22T15:28:35;32.00;99.90
6988;DHT22;3534;49.960;8.018;2023-06-22T15:31:03;31.90;99.90
6988;DHT22;3534;49.960;8.018;2023-06-22T15:33:30;31.50;99.90
6988;DHT22;3534;49.960;8.018;2023-06-22T15:35:58;30.80;99.90
6988;DHT22;3534;49.960;8.018;2023-06-22T15:38:29;29.30;99.90
6988;DHT22;3534;49.960;8.018;2023-06-22T15:40:56;27.80;99.90
6988;DHT22;3534;49.960;8.018;2023-06-22T15:43:22;27.10;99.90
6988;DHT22;3534;49.960;8.018;2023-06-22T15:45:50;26.70;99.90
6988;DHT22;3534;49.960;8.018;2023-06-22T15:48:19;26.30;99.90
6988;DHT22;3534;49.960;8.018;2023-06-22T15:50:45;26.00;99.90
6988;DHT22;3534;49.960;8.018;2023-06-22T15:53:12;25.80;99.90
6988;DHT22;3534;49.960;8.018;2023-06-22T15:55:39;25.60;99.90
6988;DHT22;3534;49.960;8.018;2023-06-22T15:58:06;25.40;99.90
6988;DHT22;3534;49.960;8.018;2023-06-22T16:00:34;25.40;99.90
6988;DHT22;3534;49.960;8.018;2023-06-22T16:03:02;25.40;99.90